ITY1014 LIRF-EDDB
Flight info
| Callsign | ITY1014 |
|---|---|
| Flight time | N/A |
| Altitude | 36000 |
| Route | SOSIV5AXSOVAN1E/25 SOVAN DCT AMTEL DCT GIPUK DCT MALUG DCT ERANI DCT SIMBA DCT TIVDA DCT ETVIS DCT NAVEK DCT GAVLI T203 ATGUP |
| Aircraft | A320/M-SDE3FGHIRWY/LB1 |
Departure
| Time | 2026-05-06 08:13 |
|---|---|
| Airport | Rome–Fiumicino Leonardo da Vinci International Airport (LIRF) |
Arrival
| Time | N/A |
|---|---|
| Airport | Berlin Brandenburg Airport (EDDB) |
| Time | Latitude | Longitude | Altitude | Speed | Heading |
|---|---|---|---|---|---|
| 2026-05-06 07:56 | 41.79653 | 12.25593 | 18 ft | 0 kts | 294° |
| 2026-05-06 08:04 | 41.79651 | 12.25601 | 18 ft | 4 kts | 295° |
| 2026-05-06 08:04 | 41.79637 | 12.25631 | 21 ft | 4 kts | 316° |
| 2026-05-06 08:05 | 41.79616 | 12.25648 | 22 ft | 4 kts | 4° |
| 2026-05-06 08:05 | 41.79607 | 12.25646 | 20 ft | 2 kts | 25° |
| 2026-05-06 08:07 | 41.79608 | 12.25647 | 20 ft | 4 kts | 24° |
| 2026-05-06 08:07 | 41.79632 | 12.25660 | 20 ft | 0 kts | 23° |
| 2026-05-06 08:07 | 41.79653 | 12.25673 | 21 ft | 23 kts | 25° |
| 2026-05-06 08:08 | 41.79791 | 12.25758 | 20 ft | 22 kts | 26° |
| 2026-05-06 08:08 | 41.79904 | 12.25841 | 18 ft | 17 kts | 27° |
| 2026-05-06 08:08 | 41.80011 | 12.25911 | 17 ft | 17 kts | 24° |
| 2026-05-06 08:08 | 41.80116 | 12.25972 | 16 ft | 15 kts | 23° |
| 2026-05-06 08:09 | 41.80206 | 12.26028 | 14 ft | 14 kts | 25° |
| 2026-05-06 08:09 | 41.80294 | 12.26084 | 13 ft | 14 kts | 25° |
| 2026-05-06 08:09 | 41.80376 | 12.26135 | 13 ft | 12 kts | 24° |
| 2026-05-06 08:09 | 41.80452 | 12.26168 | 13 ft | 11 kts | 4° |
| 2026-05-06 08:10 | 41.80515 | 12.26208 | 13 ft | 9 kts | 62° |
| 2026-05-06 08:10 | 41.80538 | 12.26276 | 14 ft | 7 kts | 69° |
| 2026-05-06 08:10 | 41.80555 | 12.26339 | 15 ft | 10 kts | 71° |
| 2026-05-06 08:10 | 41.80591 | 12.26474 | 17 ft | 21 kts | 70° |
| 2026-05-06 08:11 | 41.80642 | 12.26666 | 13 ft | 24 kts | 69° |
| 2026-05-06 08:11 | 41.80692 | 12.26838 | 12 ft | 20 kts | 70° |
| 2026-05-06 08:11 | 41.80735 | 12.26990 | 10 ft | 12 kts | 70° |
| 2026-05-06 08:11 | 41.80812 | 12.27036 | 8 ft | 15 kts | 349° |
| 2026-05-06 08:12 | 41.80905 | 12.26994 | 9 ft | 18 kts | 340° |
| 2026-05-06 08:12 | 41.80954 | 12.26930 | 10 ft | 9 kts | 276° |
| 2026-05-06 08:12 | 41.80953 | 12.26919 | 10 ft | 0 kts | 263° |
| 2026-05-06 08:12 | 41.80950 | 12.26884 | 10 ft | 28 kts | 262° |
| 2026-05-06 08:13 | 41.80780 | 12.26234 | 18 ft | 115 kts | 250° |
| 2026-05-06 08:13 | 41.80423 | 12.24957 | 182 ft | 160 kts | 250° |
| 2026-05-06 08:13 | 41.80031 | 12.23533 | 862 ft | 172 kts | 242° |
| 2026-05-06 08:13 | 41.79573 | 12.21940 | 1373 ft | 195 kts | 244° |
| 2026-05-06 08:14 | 41.79199 | 12.20144 | 2091 ft | 208 kts | 264° |
| 2026-05-06 08:14 | 41.79617 | 12.18272 | 2957 ft | 219 kts | 300° |
| 2026-05-06 08:14 | 41.80561 | 12.16655 | 3684 ft | 221 kts | 303° |
| 2026-05-06 08:14 | 41.81518 | 12.15056 | 3911 ft | 218 kts | 303° |
| 2026-05-06 08:15 | 41.82464 | 12.13474 | 3975 ft | 217 kts | 303° |
| 2026-05-06 08:15 | 41.83409 | 12.11890 | 3980 ft | 218 kts | 306° |
| 2026-05-06 08:15 | 41.84547 | 12.10560 | 3988 ft | 224 kts | 324° |
| 2026-05-06 08:15 | 41.86057 | 12.09706 | 4240 ft | 251 kts | 342° |
| 2026-05-06 08:16 | 41.87845 | 12.09049 | 4774 ft | 273 kts | 341° |
| 2026-05-06 08:16 | 41.89683 | 12.08365 | 5634 ft | 279 kts | 340° |
| 2026-05-06 08:16 | 41.91556 | 12.07668 | 6617 ft | 280 kts | 340° |
| 2026-05-06 08:16 | 41.93442 | 12.06969 | 7540 ft | 282 kts | 340° |
| 2026-05-06 08:17 | 41.95352 | 12.06279 | 8432 ft | 287 kts | 343° |
| 2026-05-06 08:17 | 41.97363 | 12.05955 | 9338 ft | 294 kts | 351° |
| 2026-05-06 08:17 | 41.99420 | 12.05759 | 10177 ft | 301 kts | 351° |
| 2026-05-06 08:17 | 42.01596 | 12.05542 | 10472 ft | 325 kts | 351° |
| 2026-05-06 08:18 | 42.03910 | 12.05308 | 10962 ft | 339 kts | 351° |
| 2026-05-06 08:18 | 42.06289 | 12.05073 | 11680 ft | 346 kts | 352° |
| 2026-05-06 08:18 | 42.08710 | 12.04838 | 12438 ft | 350 kts | 351° |
| 2026-05-06 08:18 | 42.11154 | 12.04601 | 13190 ft | 355 kts | 352° |
| 2026-05-06 08:19 | 42.13633 | 12.04359 | 13932 ft | 359 kts | 352° |
| 2026-05-06 08:19 | 42.16142 | 12.04112 | 14616 ft | 364 kts | 352° |
| 2026-05-06 08:19 | 42.18672 | 12.03823 | 15291 ft | 366 kts | 347° |
| 2026-05-06 08:19 | 42.21196 | 12.03274 | 15979 ft | 369 kts | 346° |
| 2026-05-06 08:20 | 42.23744 | 12.02703 | 16646 ft | 373 kts | 346° |
| 2026-05-06 08:20 | 42.26280 | 12.02131 | 17308 ft | 376 kts | 346° |
| 2026-05-06 08:20 | 42.28879 | 12.01540 | 18000 ft | 380 kts | 346° |
| 2026-05-06 08:20 | 42.31505 | 12.00940 | 18592 ft | 384 kts | 346° |
| 2026-05-06 08:21 | 42.34161 | 12.00338 | 19161 ft | 388 kts | 346° |
| 2026-05-06 08:21 | 42.36836 | 11.99735 | 19737 ft | 391 kts | 346° |
| 2026-05-06 08:21 | 42.39529 | 11.99127 | 20323 ft | 394 kts | 346° |
| 2026-05-06 08:21 | 42.42250 | 11.98515 | 20883 ft | 398 kts | 347° |
| 2026-05-06 08:22 | 42.45002 | 11.97898 | 21483 ft | 402 kts | 347° |
| 2026-05-06 08:22 | 42.47770 | 11.97278 | 22090 ft | 405 kts | 347° |
| 2026-05-06 08:22 | 42.50567 | 11.96650 | 22677 ft | 409 kts | 347° |
| 2026-05-06 08:22 | 42.53383 | 11.96018 | 23240 ft | 412 kts | 347° |
| 2026-05-06 08:23 | 42.56190 | 11.95384 | 23739 ft | 416 kts | 347° |
| 2026-05-06 08:23 | 42.59053 | 11.94733 | 24191 ft | 419 kts | 346° |
| 2026-05-06 08:23 | 42.61939 | 11.94072 | 24658 ft | 422 kts | 346° |
| 2026-05-06 08:23 | 42.64847 | 11.93407 | 25084 ft | 425 kts | 346° |
| 2026-05-06 08:24 | 42.67775 | 11.92740 | 25504 ft | 428 kts | 346° |
| 2026-05-06 08:24 | 42.70726 | 11.92069 | 25918 ft | 431 kts | 346° |
| 2026-05-06 08:24 | 42.73695 | 11.91394 | 26319 ft | 434 kts | 346° |
| 2026-05-06 08:24 | 42.76682 | 11.90715 | 26696 ft | 436 kts | 346° |
| 2026-05-06 08:25 | 42.79693 | 11.90027 | 27090 ft | 439 kts | 346° |
| 2026-05-06 08:25 | 42.82676 | 11.89138 | 27465 ft | 437 kts | 338° |
| 2026-05-06 08:25 | 42.85473 | 11.87679 | 27844 ft | 434 kts | 328° |
| 2026-05-06 08:25 | 42.88137 | 11.85758 | 28225 ft | 434 kts | 326° |
| 2026-05-06 08:26 | 42.90803 | 11.83798 | 28598 ft | 436 kts | 326° |
| 2026-05-06 08:26 | 42.93490 | 11.81834 | 28961 ft | 439 kts | 326° |
| 2026-05-06 08:26 | 42.96193 | 11.79861 | 29302 ft | 441 kts | 326° |
| 2026-05-06 08:26 | 42.98904 | 11.77879 | 29650 ft | 444 kts | 326° |
| 2026-05-06 08:27 | 43.01634 | 11.75881 | 29993 ft | 446 kts | 326° |
| 2026-05-06 08:27 | 43.04374 | 11.73875 | 30315 ft | 448 kts | 325° |
| 2026-05-06 08:27 | 43.07127 | 11.71855 | 30595 ft | 450 kts | 325° |
| 2026-05-06 08:27 | 43.09888 | 11.69829 | 30854 ft | 452 kts | 325° |
| 2026-05-06 08:28 | 43.12666 | 11.67789 | 31110 ft | 454 kts | 325° |
| 2026-05-06 08:28 | 43.15454 | 11.65733 | 31332 ft | 457 kts | 325° |
| 2026-05-06 08:28 | 43.18352 | 11.63868 | 31546 ft | 466 kts | 333° |
| 2026-05-06 08:28 | 43.21504 | 11.62647 | 31858 ft | 474 kts | 343° |
| 2026-05-06 08:29 | 43.24812 | 11.62156 | 32221 ft | 482 kts | 354° |
| 2026-05-06 08:29 | 43.28175 | 11.62439 | 32536 ft | 489 kts | 4° |
| 2026-05-06 08:29 | 43.31525 | 11.63274 | 32850 ft | 490 kts | 6° |
| 2026-05-06 08:29 | 43.34837 | 11.64131 | 33196 ft | 489 kts | 6° |
| 2026-05-06 08:30 | 43.38228 | 11.65007 | 33509 ft | 489 kts | 6° |
| 2026-05-06 08:30 | 43.41524 | 11.65858 | 33850 ft | 489 kts | 6° |
| 2026-05-06 08:30 | 43.44888 | 11.66729 | 34019 ft | 492 kts | 6° |
| 2026-05-06 08:30 | 43.48268 | 11.67600 | 34132 ft | 496 kts | 6° |
| 2026-05-06 08:31 | 43.55078 | 11.69353 | 34350 ft | 499 kts | 6° |
| 2026-05-06 08:31 | 43.58495 | 11.70236 | 34472 ft | 500 kts | 6° |
| 2026-05-06 08:31 | 43.61920 | 11.71124 | 34590 ft | 501 kts | 6° |
| 2026-05-06 08:32 | 43.65348 | 11.72014 | 34720 ft | 502 kts | 6° |
| 2026-05-06 08:32 | 43.68781 | 11.72903 | 34842 ft | 502 kts | 6° |
| 2026-05-06 08:32 | 43.72216 | 11.73793 | 34961 ft | 502 kts | 6° |
| 2026-05-06 08:32 | 43.75649 | 11.74687 | 35090 ft | 502 kts | 6° |
| 2026-05-06 08:33 | 43.79080 | 11.75586 | 35230 ft | 502 kts | 7° |
| 2026-05-06 08:33 | 43.82511 | 11.76489 | 35389 ft | 501 kts | 6° |
| 2026-05-06 08:33 | 43.85934 | 11.77385 | 35508 ft | 501 kts | 6° |
| 2026-05-06 08:33 | 43.89358 | 11.78277 | 35635 ft | 501 kts | 6° |
| 2026-05-06 08:34 | 43.92780 | 11.79171 | 35752 ft | 500 kts | 6° |
| 2026-05-06 08:34 | 43.99617 | 11.80954 | 35954 ft | 500 kts | 6° |
| 2026-05-06 08:35 | 44.06476 | 11.82742 | 35937 ft | 503 kts | 6° |
| 2026-05-06 08:35 | 44.13357 | 11.84566 | 35930 ft | 504 kts | 6° |
| 2026-05-06 08:36 | 44.20202 | 11.86379 | 35926 ft | 504 kts | 6° |
| 2026-05-06 08:36 | 44.27092 | 11.88195 | 35926 ft | 504 kts | 6° |
| 2026-05-06 08:37 | 44.33984 | 11.90020 | 35948 ft | 504 kts | 6° |
| 2026-05-06 08:37 | 44.40877 | 11.91861 | 35954 ft | 504 kts | 6° |
| 2026-05-06 08:38 | 44.47774 | 11.93705 | 35945 ft | 504 kts | 6° |
| 2026-05-06 08:38 | 44.54684 | 11.95552 | 35951 ft | 506 kts | 6° |
| 2026-05-06 08:39 | 44.61598 | 11.97411 | 35964 ft | 506 kts | 6° |
| 2026-05-06 08:39 | 44.68499 | 11.99378 | 35942 ft | 505 kts | 7° |
| 2026-05-06 08:40 | 44.75328 | 12.01386 | 35949 ft | 505 kts | 7° |
| 2026-05-06 08:40 | 44.82221 | 12.03392 | 35951 ft | 506 kts | 6° |
| 2026-05-06 08:41 | 44.89127 | 12.05392 | 35942 ft | 506 kts | 6° |
| 2026-05-06 08:41 | 44.96024 | 12.07394 | 35944 ft | 507 kts | 7° |
| 2026-05-06 08:42 | 45.02923 | 12.09400 | 35932 ft | 505 kts | 6° |
| 2026-05-06 08:42 | 45.09814 | 12.11408 | 35934 ft | 506 kts | 6° |
| 2026-05-06 08:43 | 45.15540 | 12.13081 | 35957 ft | 506 kts | 6° |
| 2026-05-06 08:43 | 45.22451 | 12.15104 | 35942 ft | 507 kts | 6° |
| 2026-05-06 08:44 | 45.29360 | 12.17134 | 35936 ft | 507 kts | 6° |
| 2026-05-06 08:44 | 45.36278 | 12.19166 | 35952 ft | 508 kts | 6° |
| 2026-05-06 08:45 | 45.43202 | 12.21210 | 35950 ft | 508 kts | 6° |
| 2026-05-06 08:45 | 45.50096 | 12.23252 | 35952 ft | 509 kts | 7° |
| 2026-05-06 08:46 | 45.57038 | 12.25316 | 35930 ft | 509 kts | 7° |
| 2026-05-06 08:46 | 45.63973 | 12.27374 | 35932 ft | 509 kts | 7° |
| 2026-05-06 08:47 | 45.70922 | 12.29438 | 35972 ft | 510 kts | 7° |
| 2026-05-06 08:47 | 45.77858 | 12.31513 | 35962 ft | 509 kts | 7° |
| 2026-05-06 08:48 | 45.84796 | 12.33592 | 35957 ft | 510 kts | 7° |
| 2026-05-06 08:48 | 45.91712 | 12.35661 | 35968 ft | 510 kts | 7° |
| 2026-05-06 08:49 | 45.98669 | 12.37761 | 35965 ft | 510 kts | 7° |
| 2026-05-06 08:49 | 46.05611 | 12.39862 | 35956 ft | 509 kts | 7° |
| 2026-05-06 08:50 | 46.12540 | 12.41958 | 35957 ft | 509 kts | 7° |
| 2026-05-06 08:50 | 46.19481 | 12.44061 | 35969 ft | 509 kts | 7° |
| 2026-05-06 08:51 | 46.26376 | 12.46156 | 35950 ft | 509 kts | 7° |
| 2026-05-06 08:51 | 46.33320 | 12.48273 | 35967 ft | 510 kts | 7° |
| 2026-05-06 08:52 | 46.40254 | 12.50396 | 35956 ft | 509 kts | 7° |
| 2026-05-06 08:52 | 46.47187 | 12.52527 | 35953 ft | 509 kts | 7° |
| 2026-05-06 08:53 | 46.54115 | 12.54650 | 35969 ft | 509 kts | 7° |
| 2026-05-06 08:53 | 46.61034 | 12.56784 | 35970 ft | 507 kts | 7° |
| 2026-05-06 08:54 | 46.67937 | 12.58915 | 35962 ft | 507 kts | 7° |
| 2026-05-06 08:54 | 46.74833 | 12.61104 | 35966 ft | 507 kts | 8° |
| 2026-05-06 08:55 | 46.81696 | 12.63452 | 35952 ft | 507 kts | 9° |
| 2026-05-06 08:55 | 46.88518 | 12.65839 | 35933 ft | 507 kts | 9° |
| 2026-05-06 08:56 | 46.95378 | 12.68209 | 35923 ft | 506 kts | 9° |
| 2026-05-06 08:56 | 47.02231 | 12.70542 | 35904 ft | 505 kts | 8° |
| 2026-05-06 08:57 | 47.09080 | 12.72883 | 35905 ft | 505 kts | 8° |
| 2026-05-06 08:57 | 47.15939 | 12.75239 | 35886 ft | 506 kts | 9° |
| 2026-05-06 08:58 | 47.22789 | 12.77617 | 35858 ft | 506 kts | 9° |
| 2026-05-06 08:58 | 47.29645 | 12.80003 | 35860 ft | 507 kts | 9° |
| 2026-05-06 08:59 | 47.36519 | 12.82387 | 35836 ft | 508 kts | 9° |
| 2026-05-06 08:59 | 47.43403 | 12.84775 | 35823 ft | 508 kts | 9° |
| 2026-05-06 09:00 | 47.50292 | 12.87190 | 35835 ft | 509 kts | 10° |
| 2026-05-06 09:00 | 47.57173 | 12.89603 | 35823 ft | 508 kts | 9° |
| 2026-05-06 09:01 | 47.64014 | 12.91999 | 35824 ft | 509 kts | 9° |
| 2026-05-06 09:01 | 47.70900 | 12.94424 | 35833 ft | 509 kts | 10° |
| 2026-05-06 09:02 | 47.77852 | 12.95864 | 35828 ft | 503 kts | 0° |
| 2026-05-06 09:02 | 47.84818 | 12.96732 | 35849 ft | 502 kts | 0° |
| 2026-05-06 09:03 | 47.91801 | 12.97618 | 35856 ft | 502 kts | 0° |
| 2026-05-06 09:03 | 47.98776 | 12.98500 | 35845 ft | 503 kts | 0° |
| 2026-05-06 09:04 | 48.05746 | 12.99379 | 35846 ft | 503 kts | 0° |
| 2026-05-06 09:04 | 48.12689 | 13.00269 | 35847 ft | 503 kts | 0° |
| 2026-05-06 09:05 | 48.19660 | 13.01159 | 35849 ft | 503 kts | 0° |
| 2026-05-06 09:05 | 48.26538 | 13.00577 | 35849 ft | 491 kts | 343° |
| 2026-05-06 09:06 | 48.33244 | 12.98608 | 35850 ft | 491 kts | 343° |
| 2026-05-06 09:06 | 48.39959 | 12.96645 | 35862 ft | 492 kts | 343° |
| 2026-05-06 09:07 | 48.46657 | 12.94707 | 35684 ft | 481 kts | 343° |
| 2026-05-06 09:07 | 48.49863 | 12.93802 | 35445 ft | 470 kts | 343° |
| 2026-05-06 09:07 | 48.53100 | 12.92906 | 34959 ft | 465 kts | 343° |
| 2026-05-06 09:07 | 48.56281 | 12.92046 | 34425 ft | 463 kts | 343° |
| 2026-05-06 09:08 | 48.59401 | 12.91224 | 34002 ft | 459 kts | 343° |
| 2026-05-06 09:08 | 48.62533 | 12.90428 | 33531 ft | 454 kts | 344° |
| 2026-05-06 09:08 | 48.65635 | 12.89650 | 32990 ft | 451 kts | 343° |
| 2026-05-06 09:08 | 48.68718 | 12.88857 | 32451 ft | 447 kts | 343° |
| 2026-05-06 09:09 | 48.71775 | 12.87999 | 31691 ft | 449 kts | 342° |
| 2026-05-06 09:09 | 48.74854 | 12.87068 | 30951 ft | 451 kts | 341° |
| 2026-05-06 09:09 | 48.77924 | 12.86103 | 30351 ft | 450 kts | 341° |
| 2026-05-06 09:09 | 48.80987 | 12.85130 | 29807 ft | 448 kts | 341° |
| 2026-05-06 09:10 | 48.84026 | 12.84170 | 29247 ft | 445 kts | 341° |
| 2026-05-06 09:10 | 48.87045 | 12.83232 | 28708 ft | 441 kts | 342° |